Map

Track Data

SID SEASON NUMBER BASIN SUBBASIN NAME ISO_TIME NATURE LAT LON WMO_WIND WMO_PRES WMO_AGENCY TRACK_TYPE DIST2LAND LANDFALL IFLAG USA_AGENCY USA_ATCF_ID USA_LAT USA_LON USA_RECORD USA_STATUS USA_WIND USA_PRES USA_SSHS USA_R34_NE USA_R34_SE USA_R34_SW USA_R34_NW USA_R50_NE USA_R50_SE USA_R50_SW USA_R50_NW USA_R64_NE USA_R64_SE USA_R64_SW USA_R64_NW USA_POCI USA_ROCI USA_RMW USA_EYE TOKYO_LAT TOKYO_LON TOKYO_GRADE TOKYO_WIND TOKYO_PRES TOKYO_R50_DIR TOKYO_R50_LONG TOKYO_R50_SHORT TOKYO_R30_DIR TOKYO_R30_LONG TOKYO_R30_SHORT TOKYO_LAND CMA_LAT CMA_LON CMA_CAT CMA_WIND CMA_PRES HKO_LAT HKO_LON HKO_CAT HKO_WIND HKO_PRES NEWDELHI_LAT NEWDELHI_LON NEWDELHI_GRADE NEWDELHI_WIND NEWDELHI_PRES NEWDELHI_CI NEWDELHI_DP NEWDELHI_POCI REUNION_LAT REUNION_LON REUNION_TYPE REUNION_WIND REUNION_PRES REUNION_TNUM REUNION_CI REUNION_RMW REUNION_R34_NE REUNION_R34_SE REUNION_R34_SW REUNION_R34_NW REUNION_R50_NE REUNION_R50_SE REUNION_R50_SW REUNION_R50_NW REUNION_R64_NE REUNION_R64_SE REUNION_R64_SW REUNION_R64_NW BOM_LAT BOM_LON BOM_TYPE BOM_WIND BOM_PRES BOM_TNUM BOM_CI BOM_RMW BOM_R34_NE BOM_R34_SE BOM_R34_SW BOM_R34_NW BOM_R50_NE BOM_R50_SE BOM_R50_SW BOM_R50_NW BOM_R64_NE BOM_R64_SE BOM_R64_SW BOM_R64_NW BOM_ROCI BOM_POCI BOM_EYE BOM_POS_METHOD BOM_PRES_METHOD NADI_LAT NADI_LON NADI_CAT NADI_WIND NADI_PRES WELLINGTON_LAT WELLINGTON_LON WELLINGTON_WIND WELLINGTON_PRES DS824_LAT DS824_LON DS824_STAGE DS824_WIND DS824_PRES TD9636_LAT TD9636_LON TD9636_STAGE TD9636_WIND TD9636_PRES TD9635_LAT TD9635_LON TD9635_WIND TD9635_PRES TD9635_ROCI NEUMANN_LAT NEUMANN_LON NEUMANN_CLASS NEUMANN_WIND NEUMANN_PRES MLC_LAT MLC_LON MLC_CLASS MLC_WIND MLC_PRES USA_GUST BOM_GUST BOM_GUST_PER REUNION_GUST REUNION_GUST_PER USA_SEAHGT USA_SEARAD_NE USA_SEARAD_SE USA_SEARAD_SW USA_SEARAD_NW STORM_SPEED STORM_DIR
1980269N14146 1980 81 WP MM THELMA 1980-09-25 06:00:00 TS 14.2000 146.000 spur-other 1827 1817 __O___________ -1 14.2000 146.000 0 19 1003 10 252
1980269N14146 1980 81 WP MM THELMA 1980-09-25 09:00:00 TS 14.0472 145.522 spur-other 1807 1807 __P___________ -1 14.0450 145.532 0 19 1003 10 258
1980269N14146 1980 81 WP MM THELMA 1980-09-25 12:00:00 TS 14.0000 145.000 spur-other 1812 1812 __O___________ -1 14.0000 145.000 0 19 1003 11 275
1980269N14146 1980 81 WP MM THELMA 1980-09-25 15:00:00 TS 14.1401 144.365 spur-other 1831 1831 __P___________ -1 14.1401 144.365 0 19 1003 13 288
1980269N14146 1980 81 WP MM THELMA 1980-09-25 18:00:00 TS 14.4000 143.700 spur-other 1875 1875 __O___________ -1 14.4000 143.700 0 19 1003 14 294
1980269N14146 1980 81 WP MM THELMA 1980-09-25 21:00:00 TS 14.6999 143.078 spur-other 1904 1864 __P___________ -1 14.6999 143.078 0 24 1003 13 297
1980269N14146 1980 81 WP MM THELMA 1980-09-26 00:00:00 TS 15.0000 142.500 spur-other 1864 1814 __O___________ -1 15.0000 142.500 1 29 1003 12 295
1980269N14146 1980 81 WP MM THELMA 1980-09-26 03:00:00 TS 15.1998 141.977 spur-other 1814 1764 __P___________ -1 15.1998 141.977 1 29 1001 10 293
1980269N14146 1980 81 WP MM THELMA 1980-09-26 06:00:00 TS 15.4000 141.500 spur-other 1764 1716 __O___________ -1 15.4000 141.500 1 29 1000 10 296
1980269N14146 1980 81 WP MM THELMA 1980-09-26 09:00:00 TS 15.6550 141.012 spur-other 1718 1683 __P___________ -1 15.6550 141.012 1 29 1000 11 305
1980269N14146 1980 81 WP MM THELMA 1980-09-26 12:00:00 TS 16.0000 140.600 spur-other 1683 1659 __O___________ -1 16.0000 140.600 1 29 1000 11 318
1980269N14146 1980 81 WP MM THELMA 1980-09-26 15:00:00 TS 16.4549 140.275 spur-other 1665 1653 __P___________ -1 16.4549 140.275 1 29 999 11 334
1980269N14146 1980 81 WP MM THELMA 1980-09-26 18:00:00 TS 17.0000 140.100 spur-other 1660 1660 __O___________ -1 17.0000 140.100 1 29 998 11 351
1980269N14146 1980 81 WP MM THELMA 1980-09-26 21:00:00 TS 17.5625 140.090 spur-other 1681 1681 __P___________ -1 17.5625 140.090 1 29 998 12 5
1980269N14146 1980 81 WP MM THELMA 1980-09-27 00:00:00 TS 18.2000 140.200 spur-other 1713 1651 __O___________ -1 18.2000 140.200 1 29 998 14 7
1980269N14146 1980 81 WP MM THELMA 1980-09-27 03:00:00 TS 18.9046 140.254 spur-other 1657 1592 __P___________ -1 18.9046 140.254 1 29 996 15 11
1980269N14146 1980 81 WP MM THELMA 1980-09-27 06:00:00 TS 19.7000 140.500 spur-other 1592 1521 __O___________ -1 19.7000 140.500 1 29 994 20 25
1980269N14146 1980 81 WP MM THELMA 1980-09-27 09:00:00 TS 20.6833 141.152 spur-other 1514 1457 __P___________ -1 20.5787 141.092 1 29 994 22 36
1980269N14146 1980 81 WP MM THELMA 1980-09-27 12:00:00 TS 21.5000 141.900 spur-other 1457 1443 __O___________ -1 21.5000 141.900 1 29 994 17 47
1980269N14146 1980 81 WP MM THELMA 1980-09-27 15:00:00 TS 21.8498 142.509 spur-other 1452 ______________ -1 1 13 58

Digital Typhoon Data and Search

About IBTrACS Database

This database is a web-friendly format of International Best Track Archive for Climate Stewardship (IBTrACS), a global best track data archive curated by NOAA dating back to 1842.

Updated: 2021-11-26